Time;durP1;ratioP1;P1;durP2;ratioP2;P2;SDS_P1;SDS_P2;PMS_P1;PMS_P2;Temp;Humidity;BMP_temperature;BMP_pressure;BME280_temperature;BME280_humidity;BME280_pressure;Samples;Min_cycle;Max_cycle;Signal;HPM_P1;HPM_P2
2023/05/31 00:01:14;;;;;;;1.33;0.80;;;20.30;56.60;;;;;;5072723;28;20083;-61
2023/05/31 00:03:42;;;;;;;1.20;0.70;;;20.40;56.70;;;;;;5076533;28;20093;-61
2023/05/31 00:06:12;;;;;;;2.22;0.98;;;20.40;56.70;;;;;;5075370;28;20163;-61
2023/05/31 00:08:38;;;;;;;1.92;0.73;;;20.30;56.60;;;;;;5075634;28;20055;-61
2023/05/31 00:11:04;;;;;;;1.08;0.68;;;20.40;56.70;;;;;;5076568;28;20085;-61
2023/05/31 00:13:29;;;;;;;1.65;0.70;;;20.30;56.60;;;;;;5076055;28;20135;-61
2023/05/31 00:15:55;;;;;;;1.58;0.75;;;20.30;56.60;;;;;;5075747;28;20169;-61
2023/05/31 00:18:20;;;;;;;1.25;0.68;;;20.30;56.60;;;;;;5076055;28;20044;-61
2023/05/31 00:20:46;;;;;;;1.08;0.70;;;20.30;56.70;;;;;;5076233;28;20033;-61
2023/05/31 00:23:11;;;;;;;1.20;0.65;;;20.40;56.70;;;;;;5074848;28;20044;-61
2023/05/31 00:25:38;;;;;;;1.02;0.68;;;20.30;56.60;;;;;;5076204;28;20437;-61
2023/05/31 00:28:03;;;;;;;1.17;0.70;;;20.30;56.70;;;;;;5075758;28;20059;-61
2023/05/31 00:30:29;;;;;;;1.17;0.70;;;20.30;56.60;;;;;;5073797;28;20049;-61
2023/05/31 00:32:55;;;;;;;2.60;0.75;;;20.30;56.70;;;;;;5076193;28;20044;-61
2023/05/31 00:35:20;;;;;;;1.50;0.63;;;20.30;56.70;;;;;;5075867;28;20037;-61
2023/05/31 00:37:46;;;;;;;1.38;0.73;;;20.30;56.70;;;;;;5090662;28;20048;-61
2023/05/31 00:40:11;;;;;;;0.90;0.50;;;20.30;56.70;;;;;;5075579;28;20072;-61
2023/05/31 00:42:37;;;;;;;1.45;0.77;;;20.30;56.70;;;;;;5074487;28;20041;-61
2023/05/31 00:45:04;;;;;;;1.73;0.80;;;20.30;56.70;;;;;;5075031;28;20044;-61
2023/05/31 00:47:30;;;;;;;1.48;0.68;;;20.30;56.70;;;;;;5074620;28;20047;-60
2023/05/31 00:49:55;;;;;;;1.48;0.85;;;20.30;56.70;;;;;;5075706;28;20127;-61
2023/05/31 00:52:21;;;;;;;1.45;0.63;;;20.30;56.70;;;;;;5073220;28;20119;-61
2023/05/31 00:54:46;;;;;;;1.65;0.68;;;20.20;56.60;;;;;;5076158;28;20506;-61
2023/05/31 00:57:12;;;;;;;1.02;0.70;;;20.30;56.70;;;;;;5074315;28;20068;-61
2023/05/31 00:59:37;;;;;;;1.40;0.65;;;20.20;56.60;;;;;;5074636;28;20044;-61
2023/05/31 01:02:03;;;;;;;1.08;0.77;;;20.20;56.60;;;;;;5057456;28;20044;-61
2023/05/31 01:04:30;;;;;;;1.98;0.95;;;20.20;56.60;;;;;;5073301;28;20072;-61
2023/05/31 01:06:56;;;;;;;1.55;0.60;;;20.20;56.60;;;;;;5074146;28;20040;-61
2023/05/31 01:09:21;;;;;;;1.38;0.80;;;20.20;56.60;;;;;;5074776;28;20117;-61
2023/05/31 01:12:06;;;;;;;1.45;0.68;;;20.20;56.60;;;;;;5072483;28;20049;-61
2023/05/31 01:15:00;;;;;;;1.88;0.90;;;20.20;56.60;;;;;;5074227;28;20045;-61
2023/05/31 01:17:48;;;;;;;1.65;0.80;;;20.20;56.60;;;;;;5074731;28;20857;-61
2023/05/31 01:20:15;;;;;;;1.52;0.80;;;20.20;56.60;;;;;;5072771;28;20036;-61
2023/05/31 01:22:44;;;;;;;0.90;0.60;;;20.20;56.60;;;;;;5073771;28;20571;-61
2023/05/31 01:25:09;;;;;;;1.67;0.70;;;20.20;56.60;;;;;;5074998;28;20044;-61
2023/05/31 01:27:35;;;;;;;1.70;0.80;;;20.20;56.60;;;;;;5073822;28;20055;-61
2023/05/31 01:30:01;;;;;;;1.17;0.70;;;20.20;56.60;;;;;;5073999;28;20040;-61
2023/05/31 01:32:27;;;;;;;1.50;0.80;;;20.20;57.40;;;;;;5073596;28;20044;-61
2023/05/31 01:34:52;;;;;;;1.83;0.80;;;20.20;56.60;;;;;;5074295;28;20052;-61
2023/05/31 01:37:18;;;;;;;2.30;0.80;;;20.20;56.60;;;;;;5074525;28;20041;-61
2023/05/31 01:39:46;;;;;;;1.42;0.60;;;20.10;56.60;;;;;;5073844;28;20040;-61
2023/05/31 01:42:11;;;;;;;1.75;0.63;;;20.10;56.60;;;;;;5073473;28;20049;-61
2023/05/31 01:44:37;;;;;;;1.45;0.90;;;20.10;56.60;;;;;;5074676;28;20048;-61
2023/05/31 01:47:02;;;;;;;1.20;0.60;;;20.20;56.60;;;;;;5073839;28;20055;-61
2023/05/31 01:49:28;;;;;;;2.00;1.00;;;20.10;56.60;;;;;;5074512;28;20048;-61
2023/05/31 01:51:53;;;;;;;1.15;0.80;;;20.20;56.70;;;;;;5074469;28;20045;-61
2023/05/31 01:54:19;;;;;;;1.65;0.80;;;20.10;56.60;;;;;;5072355;28;20049;-61
2023/05/31 01:56:45;;;;;;;2.28;0.90;;;20.20;56.70;;;;;;5074506;28;20135;-61
2023/05/31 01:59:10;;;;;;;1.63;0.82;;;20.10;56.60;;;;;;5073173;28;20078;-61
2023/05/31 02:01:36;;;;;;;1.42;0.60;;;20.10;56.60;;;;;;5072578;28;20495;-61
2023/05/31 02:04:01;;;;;;;2.17;0.95;;;20.10;56.60;;;;;;5074321;28;20132;-61
2023/05/31 02:06:27;;;;;;;1.17;0.75;;;20.10;56.70;;;;;;5072703;28;20072;-61
2023/05/31 02:08:53;;;;;;;4.38;1.00;;;20.10;56.70;;;;;;5073252;28;20040;-61
2023/05/31 02:11:19;;;;;;;1.85;0.80;;;20.10;56.60;;;;;;5073893;28;20591;-61
2023/05/31 02:13:45;;;;;;;1.30;0.80;;;20.10;56.60;;;;;;5074266;28;20119;-61
2023/05/31 02:16:10;;;;;;;1.35;0.88;;;20.10;56.60;;;;;;5073218;28;20040;-61
2023/05/31 02:18:36;;;;;;;1.50;0.90;;;20.10;56.60;;;;;;5074128;28;20048;-61
2023/05/31 02:21:02;;;;;;;1.77;0.93;;;20.10;56.70;;;;;;5074224;28;20056;-61
2023/05/31 02:23:28;;;;;;;1.45;0.80;;;20.10;56.60;;;;;;5072448;28;20049;-61
2023/05/31 02:25:55;;;;;;;1.70;0.80;;;20.10;56.70;;;;;;5072475;28;20041;-61
2023/05/31 02:28:20;;;;;;;1.52;0.90;;;20.00;56.60;;;;;;5073214;28;20516;-61
2023/05/31 02:30:56;;;;;;;3.08;1.23;;;20.10;56.60;;;;;;5072953;28;20074;-61
2023/05/31 02:33:21;;;;;;;1.83;0.90;;;20.10;56.60;;;;;;5073503;28;20044;-61
2023/05/31 02:35:47;;;;;;;1.92;0.90;;;20.00;56.60;;;;;;5073869;28;20041;-61
2023/05/31 02:38:13;;;;;;;1.48;0.90;;;20.10;56.60;;;;;;5072707;28;20055;-61
2023/05/31 02:40:38;;;;;;;2.13;1.00;;;20.00;56.60;;;;;;5073410;28;20040;-61
2023/05/31 02:43:04;;;;;;;1.80;0.90;;;20.00;56.60;;;;;;5072904;28;20032;-61
2023/05/31 02:45:30;;;;;;;2.10;0.82;;;20.10;56.60;;;;;;5073406;28;20380;-61
2023/05/31 02:47:55;;;;;;;2.03;0.82;;;20.00;56.50;;;;;;5073494;28;20080;-61
2023/05/31 02:50:21;;;;;;;2.28;0.90;;;20.00;56.50;;;;;;5072519;28;20051;-61
2023/05/31 02:52:46;;;;;;;1.77;1.00;;;20.00;56.60;;;;;;5071971;28;20036;-61
2023/05/31 02:55:12;;;;;;;1.60;0.93;;;20.00;56.60;;;;;;5072997;28;20044;-61
2023/05/31 02:57:38;;;;;;;1.88;1.00;;;20.00;56.60;;;;;;5072463;28;20048;-61
2023/05/31 03:00:13;;;;;;;1.60;0.80;;;20.00;56.60;;;;;;5073172;28;20041;-61
2023/05/31 03:02:39;;;;;;;1.67;0.88;;;20.00;57.30;;;;;;5073451;28;20480;-61
2023/05/31 03:05:05;;;;;;;1.08;0.80;;;20.00;56.60;;;;;;5072461;28;20040;-61
2023/05/31 03:07:32;;;;;;;2.10;1.02;;;20.00;56.60;;;;;;5072984;28;20087;-61
2023/05/31 03:09:58;;;;;;;1.85;0.95;;;20.00;56.60;;;;;;5072027;28;20052;-61
2023/05/31 03:12:23;;;;;;;2.35;1.13;;;20.00;56.60;;;;;;5072203;28;20036;-61
2023/05/31 03:14:49;;;;;;;1.73;0.90;;;20.00;56.60;;;;;;5071957;28;20045;-61
2023/05/31 03:17:15;;;;;;;2.03;0.98;;;20.00;56.60;;;;;;5072734;28;20036;-61
2023/05/31 03:19:40;;;;;;;2.25;1.00;;;20.00;56.60;;;;;;5072182;28;20052;-61
2023/05/31 03:22:06;;;;;;;2.38;1.00;;;20.00;56.60;;;;;;5072562;28;20037;-61
2023/05/31 03:24:31;;;;;;;1.85;1.10;;;20.00;56.60;;;;;;5071674;28;20045;-61
2023/05/31 03:26:57;;;;;;;1.75;1.00;;;19.90;56.60;;;;;;5071856;28;20440;-61
2023/05/31 03:29:22;;;;;;;1.80;0.88;;;19.90;56.60;;;;;;5071307;28;20559;-61
2023/05/31 03:31:48;;;;;;;2.83;1.13;;;19.90;56.50;;;;;;5071598;28;20408;-61
2023/05/31 03:34:14;;;;;;;2.42;1.10;;;19.90;56.50;;;;;;5071918;28;20089;-61
2023/05/31 03:36:40;;;;;;;2.75;0.90;;;19.90;56.60;;;;;;5072029;28;20076;-61
2023/05/31 03:39:05;;;;;;;1.40;0.60;;;19.90;56.60;;;;;;5072383;28;20048;-61
2023/05/31 03:41:31;;;;;;;1.67;0.77;;;19.90;56.60;;;;;;5070959;28;20056;-61
2023/05/31 03:43:57;;;;;;;3.03;1.00;;;19.90;56.60;;;;;;5072924;28;20041;-61
2023/05/31 03:46:22;;;;;;;2.55;1.10;;;19.90;56.60;;;;;;5071759;28;20033;-61
2023/05/31 03:48:48;;;;;;;2.42;0.80;;;19.90;56.60;;;;;;5072568;28;20373;-61
2023/05/31 03:51:14;;;;;;;1.65;1.00;;;19.90;56.60;;;;;;5072180;28;20048;-61
2023/05/31 03:53:39;;;;;;;1.80;1.00;;;19.90;56.60;;;;;;5071875;28;20056;-61
2023/05/31 03:56:05;;;;;;;2.17;1.00;;;19.90;56.60;;;;;;5072681;28;20032;-61
2023/05/31 03:58:31;;;;;;;1.58;0.80;;;19.90;56.60;;;;;;5072408;28;20496;-61
2023/05/31 04:00:57;;;;;;;1.40;0.90;;;19.90;56.70;;;;;;5070713;28;20037;-61
2023/05/31 04:03:23;;;;;;;1.75;0.90;;;19.90;56.70;;;;;;5071954;28;20086;-61
2023/05/31 04:05:49;;;;;;;1.70;1.05;;;19.90;56.70;;;;;;5070867;28;20053;-61
2023/05/31 04:08:14;;;;;;;1.65;0.85;;;19.90;56.60;;;;;;5069660;28;20151;-61
2023/05/31 04:10:40;;;;;;;2.13;0.98;;;19.90;56.60;;;;;;5072516;28;20041;-61
2023/05/31 04:13:06;;;;;;;2.30;1.00;;;20.00;56.70;;;;;;5072293;28;20063;-61
2023/05/31 04:15:31;;;;;;;1.80;0.80;;;20.00;56.70;;;;;;5070328;28;20048;-61
2023/05/31 04:17:57;;;;;;;1.67;0.75;;;20.00;56.70;;;;;;5070984;28;20495;-61
2023/05/31 04:20:23;;;;;;;1.85;1.08;;;20.00;56.70;;;;;;5072228;28;20499;-61
2023/05/31 04:22:48;;;;;;;1.88;0.90;;;20.00;56.70;;;;;;5071517;28;20048;-61
2023/05/31 04:25:17;;;;;;;1.63;1.00;;;20.00;56.70;;;;;;5072143;28;20063;-61
2023/05/31 04:27:42;;;;;;;2.40;1.27;;;20.00;56.70;;;;;;5072053;28;20098;-61
2023/05/31 04:30:08;;;;;;;2.42;0.98;;;20.10;56.70;;;;;;5069850;28;20493;-61
2023/05/31 04:32:34;;;;;;;1.50;0.90;;;20.10;56.70;;;;;;5072211;28;20044;-60
2023/05/31 04:35:04;;;;;;;1.63;1.08;;;20.10;56.70;;;;;;5072062;28;20048;-61
2023/05/31 04:37:33;;;;;;;2.13;0.95;;;20.10;56.70;;;;;;5071248;28;20056;-61
2023/05/31 04:39:59;;;;;;;1.95;0.90;;;20.10;56.70;;;;;;5072160;28;20093;-60
2023/05/31 04:42:25;;;;;;;2.03;1.10;;;20.10;57.40;;;;;;5070739;28;20167;-61
2023/05/31 04:44:57;;;;;;;2.00;0.95;;;20.20;56.70;;;;;;5071655;28;20102;-61
2023/05/31 04:47:32;;;;;;;2.28;0.90;;;20.20;56.70;;;;;;5072853;28;20041;-61
2023/05/31 04:49:58;;;;;;;2.20;1.00;;;20.20;56.70;;;;;;5074948;28;20091;-61
2023/05/31 04:52:28;;;;;;;1.58;0.90;;;20.20;56.70;;;;;;5075588;28;20121;-61
2023/05/31 04:54:54;;;;;;;2.20;0.85;;;20.20;56.70;;;;;;5075588;28;20049;-61
2023/05/31 04:57:20;;;;;;;2.00;0.98;;;20.20;56.60;;;;;;5074806;28;20049;-61
2023/05/31 04:59:46;;;;;;;2.45;0.88;;;20.20;56.60;;;;;;5075451;28;20074;-61
2023/05/31 05:02:12;;;;;;;2.28;1.20;;;20.30;56.70;;;;;;5075218;28;20044;-61
2023/05/31 05:04:37;;;;;;;2.25;1.20;;;20.30;56.70;;;;;;5074618;28;20392;-61
2023/05/31 05:07:03;;;;;;;3.28;1.00;;;20.30;56.70;;;;;;5075504;28;20044;-61
2023/05/31 05:09:29;;;;;;;1.98;1.10;;;20.30;56.60;;;;;;5074963;28;20040;-61
2023/05/31 05:11:56;;;;;;;1.77;1.10;;;20.30;56.70;;;;;;5073288;28;20037;-61
2023/05/31 05:14:21;;;;;;;3.17;1.00;;;20.30;56.70;;;;;;5075236;28;20036;-61
2023/05/31 05:16:47;;;;;;;2.10;1.02;;;20.30;56.60;;;;;;5074190;28;20510;-61
2023/05/31 05:19:13;;;;;;;2.17;1.02;;;20.40;56.70;;;;;;5074391;28;20044;-61
2023/05/31 05:21:38;;;;;;;2.20;1.27;;;20.40;56.70;;;;;;5073905;28;20036;-61
2023/05/31 05:24:04;;;;;;;1.80;0.80;;;20.40;56.70;;;;;;5073738;28;20090;-61
2023/05/31 05:26:29;;;;;;;3.53;1.00;;;20.40;56.70;;;;;;5074208;28;20539;-61
2023/05/31 05:28:55;;;;;;;1.80;1.00;;;20.40;56.70;;;;;;5073549;28;20124;-61
2023/05/31 05:31:21;;;;;;;2.90;1.05;;;20.40;56.70;;;;;;5074492;28;20078;-61
2023/05/31 05:33:46;;;;;;;2.45;1.33;;;20.40;56.70;;;;;;5073820;28;20080;-61
2023/05/31 05:36:12;;;;;;;1.88;0.98;;;20.40;56.70;;;;;;5074662;28;20476;-61
2023/05/31 05:38:38;;;;;;;2.13;1.00;;;20.40;56.60;;;;;;5074206;28;20186;-62
2023/05/31 05:41:03;;;;;;;2.40;1.10;;;20.40;56.70;;;;;;5073608;28;20048;-61
2023/05/31 05:43:30;;;;;;;2.55;1.00;;;20.40;56.70;;;;;;5074376;28;20040;-61
2023/05/31 05:45:55;;;;;;;2.53;1.20;;;20.50;56.70;;;;;;5073784;28;20051;-61
2023/05/31 05:48:21;;;;;;;1.90;1.00;;;20.50;56.80;;;;;;5074223;28;20044;-61
2023/05/31 05:50:47;;;;;;;2.22;1.15;;;20.50;56.80;;;;;;5073261;28;20074;-61
2023/05/31 05:53:12;;;;;;;1.38;0.90;;;20.50;56.70;;;;;;5072024;28;20044;-61
2023/05/31 05:55:38;;;;;;;1.85;0.95;;;20.50;56.80;;;;;;5074241;28;20502;-61
2023/05/31 05:58:04;;;;;;;2.03;1.10;;;20.50;56.80;;;;;;5073499;28;20040;-61
2023/05/31 06:00:29;;;;;;;2.53;1.08;;;20.50;56.80;;;;;;5072994;28;20079;-61
2023/05/31 06:02:55;;;;;;;2.67;1.10;;;20.50;56.80;;;;;;5074146;28;20114;-61
2023/05/31 06:05:25;;;;;;;2.78;1.38;;;20.50;56.80;;;;;;5074002;28;20036;-61
2023/05/31 06:07:51;;;;;;;2.70;1.08;;;20.50;56.80;;;;;;5073455;28;20051;-61
2023/05/31 06:10:17;;;;;;;1.77;0.80;;;20.60;56.90;;;;;;5072485;28;20040;-61
2023/05/31 06:12:43;;;;;;;2.30;1.10;;;20.50;56.90;;;;;;5074181;28;20093;-61
2023/05/31 06:15:09;;;;;;;2.35;1.10;;;20.50;56.90;;;;;;5072991;28;20516;-61
2023/05/31 06:17:34;;;;;;;2.42;1.00;;;20.50;57.00;;;;;;5074294;28;20079;-61
2023/05/31 06:20:00;;;;;;;2.70;1.23;;;20.60;56.90;;;;;;5074312;28;20076;-61
2023/05/31 06:22:26;;;;;;;1.77;1.33;;;20.60;56.90;;;;;;5071657;28;20052;-61
2023/05/31 06:24:53;;;;;;;2.35;1.17;;;20.60;57.00;;;;;;5072871;28;20052;-61
2023/05/31 06:27:19;;;;;;;3.10;1.15;;;20.60;57.00;;;;;;5073190;28;20113;-61
2023/05/31 06:29:44;;;;;;;2.10;1.40;;;20.60;57.70;;;;;;5073082;28;20053;-61
2023/05/31 06:32:10;;;;;;;1.65;1.02;;;20.60;57.00;;;;;;5073775;28;20043;-61
2023/05/31 06:34:36;;;;;;;3.60;1.10;;;20.60;57.00;;;;;;5072913;28;20040;-61
2023/05/31 06:37:01;;;;;;;2.63;1.02;;;20.60;57.00;;;;;;5072663;28;20047;-61
2023/05/31 06:39:27;;;;;;;2.33;1.05;;;20.60;57.00;;;;;;5073400;28;20062;-61
2023/05/31 06:41:52;;;;;;;1.50;1.00;;;20.60;57.10;;;;;;5073767;28;20044;-64
2023/05/31 06:44:18;;;;;;;2.75;1.17;;;20.60;57.00;;;;;;5071128;28;20076;-61
2023/05/31 06:46:43;;;;;;;1.40;0.80;;;20.60;57.10;;;;;;5073458;28;20056;-61
2023/05/31 06:49:09;;;;;;;1.92;1.13;;;20.60;57.10;;;;;;5073093;28;20048;-61
2023/05/31 06:51:35;;;;;;;3.92;1.30;;;20.60;57.20;;;;;;5073458;28;20033;-61
2023/05/31 06:54:00;;;;;;;2.13;1.00;;;20.60;57.10;;;;;;5073358;28;20431;-61
2023/05/31 06:56:27;;;;;;;2.03;0.98;;;20.60;57.20;;;;;;5072046;28;20048;-61
2023/05/31 06:58:53;;;;;;;2.78;1.30;;;20.60;57.20;;;;;;5073248;28;20051;-61
2023/05/31 07:01:18;;;;;;;2.00;1.10;;;20.60;57.20;;;;;;5073060;28;20039;-61
2023/05/31 07:03:44;;;;;;;2.22;1.08;;;20.60;57.20;;;;;;5072616;28;20090;-61
2023/05/31 07:06:10;;;;;;;2.85;1.05;;;20.60;57.20;;;;;;5072725;28;20040;-61
2023/05/31 07:08:35;;;;;;;2.33;0.90;;;20.60;57.20;;;;;;5072928;28;20127;-61
2023/05/31 07:11:01;;;;;;;2.72;1.10;;;20.60;57.10;;;;;;5070178;28;20044;-61
2023/05/31 07:13:27;;;;;;;2.80;1.10;;;20.70;57.20;;;;;;5072743;28;20040;-61
2023/05/31 07:15:52;;;;;;;2.45;1.50;;;20.70;57.10;;;;;;5073306;28;20446;-61
2023/05/31 07:18:18;;;;;;;2.28;1.10;;;20.70;57.20;;;;;;5070539;28;20045;-61
2023/05/31 07:20:43;;;;;;;2.70;1.20;;;20.70;57.10;;;;;;5072814;28;20492;-61
2023/05/31 07:23:09;;;;;;;2.70;1.05;;;20.70;57.20;;;;;;5072553;28;20078;-61
2023/05/31 07:25:35;;;;;;;2.53;1.13;;;20.70;57.20;;;;;;5072078;28;20484;-61
2023/05/31 07:28:00;;;;;;;2.47;1.02;;;20.80;57.20;;;;;;5072626;28;20101;-61
2023/05/31 07:30:26;;;;;;;3.13;1.00;;;20.70;57.20;;;;;;5072566;28;20166;-61
2023/05/31 07:32:52;;;;;;;2.60;1.10;;;20.80;57.30;;;;;;5070955;28;20201;-61
2023/05/31 07:35:17;;;;;;;2.30;1.25;;;20.80;57.20;;;;;;5072217;28;20106;-61
2023/05/31 07:37:43;;;;;;;2.47;1.13;;;20.80;57.30;;;;;;5072425;28;20040;-61
2023/05/31 07:40:09;;;;;;;1.70;1.10;;;20.80;57.20;;;;;;5071408;28;20522;-61
2023/05/31 07:42:35;;;;;;;2.15;1.00;;;20.80;57.20;;;;;;5072423;28;20041;-61
2023/05/31 07:45:00;;;;;;;2.80;1.10;;;20.80;57.30;;;;;;5072514;28;20050;-61
2023/05/31 07:47:26;;;;;;;3.10;1.60;;;20.80;57.20;;;;;;5070092;28;20135;-61
2023/05/31 07:49:51;;;;;;;2.15;1.00;;;20.80;57.20;;;;;;5072469;28;20128;-61
2023/05/31 07:52:21;;;;;;;3.38;1.25;;;20.80;57.20;;;;;;5071807;28;20429;-60
2023/05/31 07:54:48;;;;;;;1.48;1.08;;;20.80;57.10;;;;;;5072428;28;20044;-60
2023/05/31 07:57:14;;;;;;;2.13;0.90;;;20.90;57.20;;;;;;5071833;28;20052;-60
2023/05/31 07:59:40;;;;;;;2.08;1.02;;;20.90;57.20;;;;;;5071246;28;20396;-60
2023/05/31 08:02:06;;;;;;;2.42;1.10;;;20.90;57.20;;;;;;5070529;28;20052;-60
2023/05/31 08:04:31;;;;;;;2.15;1.05;;;20.90;57.20;;;;;;5072160;28;20040;-60
2023/05/31 08:06:57;;;;;;;2.55;1.08;;;20.90;57.20;;;;;;5071472;28;20052;-61
2023/05/31 08:09:22;;;;;;;3.00;1.17;;;20.90;57.20;;;;;;5070720;28;20056;-60
2023/05/31 08:11:48;;;;;;;1.75;0.95;;;20.90;57.10;;;;;;5072526;28;20036;-60
2023/05/31 08:14:14;;;;;;;1.73;1.00;;;20.90;57.10;;;;;;5071621;28;20049;-61
2023/05/31 08:16:39;;;;;;;2.63;1.15;;;20.90;57.10;;;;;;5070892;28;20488;-60
2023/05/31 08:19:05;;;;;;;2.28;1.17;;;21.00;57.20;;;;;;5070983;28;20052;-60
2023/05/31 08:21:31;;;;;;;3.00;1.20;;;21.00;57.10;;;;;;5072777;28;20044;-60
2023/05/31 08:23:57;;;;;;;2.63;0.98;;;21.00;57.10;;;;;;5076356;28;20041;-60
2023/05/31 08:26:23;;;;;;;2.15;1.20;;;21.00;57.10;;;;;;5075903;28;20059;-61
2023/05/31 08:28:49;;;;;;;3.97;1.25;;;21.10;57.20;;;;;;5075226;28;20057;-61
2023/05/31 08:31:15;;;;;;;2.17;1.02;;;21.00;57.10;;;;;;5074836;28;20051;-60
2023/05/31 08:33:54;;;;;;;2.30;1.30;;;21.00;57.00;;;;;;5076199;28;20046;-60
2023/05/31 08:36:19;;;;;;;1.75;1.00;;;21.10;57.10;;;;;;5075080;28;20082;-60
2023/05/31 08:38:45;;;;;;;2.47;1.10;;;21.10;57.10;;;;;;5075981;28;20076;-60
2023/05/31 08:41:11;;;;;;;2.00;1.10;;;21.10;57.10;;;;;;5075789;28;20097;-60
2023/05/31 08:43:36;;;;;;;2.65;0.93;;;21.10;57.10;;;;;;5073998;28;20116;-60
2023/05/31 08:46:05;;;;;;;2.00;1.10;;;21.10;57.00;;;;;;5074290;28;20044;-60
2023/05/31 08:48:49;;;;;;;1.95;1.00;;;21.20;57.10;;;;;;5075690;28;20040;-61
2023/05/31 08:51:15;;;;;;;1.75;0.88;;;21.20;57.10;;;;;;5074671;28;20044;-60
2023/05/31 08:53:41;;;;;;;2.17;0.80;;;21.20;57.00;;;;;;5075348;28;20056;-60
2023/05/31 08:56:07;;;;;;;2.65;1.08;;;21.20;57.00;;;;;;5074859;28;20054;-61
2023/05/31 08:58:35;;;;;;;1.98;0.90;;;21.20;57.00;;;;;;5074581;28;20040;-60
2023/05/31 09:01:02;;;;;;;2.35;1.10;;;21.20;57.00;;;;;;5074653;28;20051;-60
2023/05/31 09:03:27;;;;;;;3.15;1.08;;;21.20;57.00;;;;;;5074492;28;20036;-60
2023/05/31 09:05:54;;;;;;;1.63;1.00;;;21.20;57.00;;;;;;5075141;28;20186;-60
2023/05/31 09:08:20;;;;;;;1.80;0.80;;;21.20;57.00;;;;;;5073850;28;20053;-60
2023/05/31 09:10:46;;;;;;;2.28;0.98;;;21.20;56.90;;;;;;5074603;28;20490;-61
2023/05/31 09:13:11;;;;;;;2.33;1.17;;;21.20;56.90;;;;;;5075009;28;20048;-60
2023/05/31 09:15:37;;;;;;;2.25;1.27;;;21.30;57.00;;;;;;5075309;28;20048;-61
2023/05/31 09:18:14;;;;;;;3.47;1.20;;;21.30;56.90;;;;;;5073219;28;20044;-60
2023/05/31 09:20:39;;;;;;;1.98;1.00;;;21.30;56.90;;;;;;5075303;28;20044;-60
2023/05/31 09:23:05;;;;;;;1.85;1.05;;;21.30;56.90;;;;;;5073976;28;20040;-60
2023/05/31 09:25:45;;;;;;;2.28;0.93;;;21.20;56.90;;;;;;5056545;28;20044;-60
2023/05/31 09:28:11;;;;;;;2.20;0.93;;;21.30;56.90;;;;;;5073349;28;20203;-60
2023/05/31 09:30:37;;;;;;;2.30;1.08;;;21.30;56.90;;;;;;5074954;28;20053;-60
2023/05/31 09:33:03;;;;;;;1.83;1.20;;;21.30;56.90;;;;;;5073009;28;20090;-60
2023/05/31 09:35:29;;;;;;;2.95;1.20;;;21.30;56.90;;;;;;5074857;28;20381;-61
2023/05/31 09:37:55;;;;;;;2.95;1.10;;;21.30;56.80;;;;;;5074326;28;20106;-61
2023/05/31 09:40:25;;;;;;;2.17;1.10;;;21.40;56.90;;;;;;5074652;28;20032;-61
2023/05/31 09:42:54;;;;;;;2.53;1.20;;;21.30;56.90;;;;;;5075043;28;20131;-61
2023/05/31 09:45:20;;;;;;;3.63;1.27;;;21.40;56.90;;;;;;5072898;28;20033;-61
2023/05/31 09:47:46;;;;;;;2.35;1.10;;;21.30;56.80;;;;;;5074498;28;20051;-61
2023/05/31 09:50:15;;;;;;;2.05;1.00;;;21.30;56.80;;;;;;5074293;28;20040;-61
2023/05/31 09:52:40;;;;;;;2.67;1.17;;;21.40;56.90;;;;;;5074010;28;20071;-61
2023/05/31 09:55:11;;;;;;;2.20;1.02;;;21.40;56.80;;;;;;5072760;28;20052;-61
2023/05/31 09:57:40;;;;;;;2.55;1.17;;;21.40;56.80;;;;;;5074769;28;20044;-61
2023/05/31 10:00:12;;;;;;;2.85;1.15;;;21.40;56.80;;;;;;5073471;28;20048;-61
2023/05/31 10:02:38;;;;;;;1.63;0.90;;;21.40;56.80;;;;;;5074586;28;20072;-61
2023/05/31 10:05:04;;;;;;;2.22;1.05;;;21.40;56.70;;;;;;5074458;28;20075;-61
2023/05/31 10:07:29;;;;;;;2.38;1.10;;;21.40;56.70;;;;;;5071949;28;20048;-60
2023/05/31 10:09:55;;;;;;;4.00;1.10;;;21.40;56.70;;;;;;5072869;28;20056;-60
2023/05/31 10:12:20;;;;;;;1.63;1.00;;;21.40;56.70;;;;;;5072624;28;20043;-60
2023/05/31 10:14:49;;;;;;;2.85;1.30;;;21.40;56.70;;;;;;5072291;28;20046;-60
2023/05/31 10:17:15;;;;;;;2.47;0.93;;;21.40;56.70;;;;;;5073985;28;20082;-60
2023/05/31 10:19:42;;;;;;;2.95;1.20;;;21.40;56.70;;;;;;5072989;28;20488;-60
2023/05/31 10:22:08;;;;;;;2.10;1.00;;;21.40;56.70;;;;;;5072035;28;20129;-61
2023/05/31 10:24:56;;;;;;;2.03;1.08;;;21.40;56.70;;;;;;5071808;28;20083;-61
2023/05/31 10:27:27;;;;;;;;;;;21.40;56.70;;;;;;5071898;28;20071;-61
2023/05/31 10:29:53;;;;;;;2.42;0.80;;;21.40;56.70;;;;;;5072530;28;19969;-61
2023/05/31 10:32:20;;;;;;;1.42;0.95;;;21.40;56.70;;;;;;5072637;28;20055;-61
2023/05/31 10:34:46;;;;;;;2.97;1.20;;;21.40;56.70;;;;;;5055139;28;20464;-61
2023/05/31 10:37:11;;;;;;;2.72;0.95;;;21.40;56.70;;;;;;5072309;28;20131;-61
2023/05/31 10:40:02;;;;;;;3.10;1.02;;;21.40;56.70;;;;;;5072352;28;20036;-61
2023/05/31 10:42:38;;;;;;;1.40;0.95;;;21.40;56.70;;;;;;5071527;28;20499;-61
2023/05/31 10:45:23;;;;;;;2.20;1.00;;;21.50;57.40;;;;;;5072152;28;20041;-61
2023/05/31 10:47:48;;;;;;;2.22;1.10;;;21.50;56.80;;;;;;5073592;28;20040;-61
2023/05/31 10:50:18;;;;;;;1.95;0.93;;;21.50;56.70;;;;;;5072306;28;20097;-61
2023/05/31 10:52:47;;;;;;;2.03;0.88;;;21.50;56.70;;;;;;5073590;28;20045;-61
2023/05/31 10:55:19;;;;;;;3.28;1.10;;;21.50;56.70;;;;;;5072458;28;20067;-61
2023/05/31 10:57:50;;;;;;;3.47;1.20;;;21.50;56.70;;;;;;5072553;28;20048;-61
2023/05/31 11:00:19;;;;;;;3.50;1.27;;;21.50;56.70;;;;;;5072919;28;20123;-61
2023/05/31 11:02:54;;;;;;;2.28;1.15;;;21.50;56.70;;;;;;5071151;28;20048;-61
2023/05/31 11:05:21;;;;;;;2.33;0.90;;;21.50;56.70;;;;;;5073073;28;20036;-61
2023/05/31 11:07:48;;;;;;;2.17;0.98;;;21.50;56.70;;;;;;5073360;28;20048;-61
2023/05/31 11:10:32;;;;;;;2.53;1.20;;;21.50;56.70;;;;;;5071875;28;20048;-61
2023/05/31 11:13:02;;;;;;;2.47;1.08;;;21.50;56.70;;;;;;5073239;28;20043;-61
2023/05/31 11:15:54;;;;;;;2.47;1.17;;;21.60;56.70;;;;;;5072882;28;20044;-61
2023/05/31 11:18:23;;;;;;;3.72;1.27;;;21.50;56.70;;;;;;5070740;28;20052;-60
2023/05/31 11:20:48;;;;;;;3.60;1.17;;;21.50;56.70;;;;;;5073157;28;20054;-60
2023/05/31 11:23:17;;;;;;;1.75;1.00;;;21.60;56.80;;;;;;5072548;28;20127;-60
2023/05/31 11:25:43;;;;;;;2.50;1.20;;;21.50;56.70;;;;;;5072024;28;20435;-60
2023/05/31 11:28:09;;;;;;;2.38;1.10;;;21.50;56.70;;;;;;5072400;28;20507;-62
2023/05/31 11:30:36;;;;;;;1.90;1.00;;;21.60;56.70;;;;;;5070800;28;20041;-60
2023/05/31 11:33:01;;;;;;;2.70;1.25;;;21.50;56.60;;;;;;5073292;28;20051;-60
2023/05/31 11:35:30;;;;;;;2.22;1.17;;;21.60;56.70;;;;;;5072497;28;20052;-60
2023/05/31 11:38:00;;;;;;;2.65;1.20;;;21.60;56.70;;;;;;5070871;28;20044;-60
2023/05/31 11:40:27;;;;;;;2.53;1.20;;;21.60;56.70;;;;;;5071098;28;20136;-60
2023/05/31 11:42:52;;;;;;;2.92;1.20;;;21.60;56.70;;;;;;5072890;28;20066;-60
2023/05/31 11:45:18;;;;;;;2.63;1.02;;;21.60;56.70;;;;;;5070456;28;20048;-60
2023/05/31 11:48:17;;;;;;;1.50;0.80;;;21.60;56.70;;;;;;5071436;28;20071;-60
2023/05/31 11:50:43;;;;;;;2.83;1.45;;;21.60;56.70;;;;;;5072800;28;20044;-60
2023/05/31 11:53:10;;;;;;;2.55;1.13;;;21.60;56.70;;;;;;5070345;28;20037;-60
2023/05/31 11:55:35;;;;;;;2.20;1.13;;;21.60;56.70;;;;;;5073115;28;20040;-60
2023/05/31 11:58:01;;;;;;;1.55;0.90;;;21.60;56.70;;;;;;5079126;28;20038;-60
2023/05/31 12:00:28;;;;;;;3.58;1.45;;;21.60;56.70;;;;;;5078089;28;20083;-60
2023/05/31 12:02:58;;;;;;;2.28;1.20;;;21.60;56.70;;;;;;5079024;28;20450;-61
2023/05/31 12:05:24;;;;;;;3.13;1.05;;;21.60;56.70;;;;;;5079305;28;20056;-60
2023/05/31 12:07:53;;;;;;;2.55;1.23;;;21.60;56.70;;;;;;5078260;28;20052;-60
2023/05/31 12:10:18;;;;;;;2.38;1.05;;;21.60;56.60;;;;;;5078649;28;20048;-60
2023/05/31 12:12:48;;;;;;;1.65;1.00;;;21.60;56.60;;;;;;5078528;28;20067;-60
2023/05/31 12:15:15;;;;;;;3.97;1.45;;;21.70;56.70;;;;;;5078769;28;20525;-60
2023/05/31 12:17:41;;;;;;;2.08;1.15;;;21.70;56.70;;;;;;5078863;28;20052;-60
2023/05/31 12:20:07;;;;;;;2.35;1.20;;;21.70;56.70;;;;;;5076735;28;20044;-60
2023/05/31 12:22:33;;;;;;;2.50;1.25;;;21.70;56.70;;;;;;5079243;28;20161;-60
2023/05/31 12:24:59;;;;;;;3.70;1.30;;;21.70;56.60;;;;;;5079026;28;20040;-60
2023/05/31 12:27:25;;;;;;;1.92;1.10;;;21.70;56.60;;;;;;5076581;28;20594;-60
2023/05/31 12:29:57;;;;;;;2.10;1.13;;;21.70;56.70;;;;;;5079077;28;20080;-60
2023/05/31 12:32:27;;;;;;;2.15;1.48;;;21.70;56.70;;;;;;5078556;28;20086;-60
2023/05/31 12:35:02;;;;;;;2.20;1.35;;;21.70;56.70;;;;;;5078388;28;20040;-60
2023/05/31 12:37:27;;;;;;;2.60;1.17;;;21.70;56.60;;;;;;5077427;28;20479;-60
2023/05/31 12:40:18;;;;;;;3.13;1.23;;;21.70;56.70;;;;;;5078755;28;20051;-60
2023/05/31 12:42:43;;;;;;;1.63;1.15;;;21.70;56.70;;;;;;5078293;28;20040;-60
2023/05/31 12:45:09;;;;;;;2.90;1.27;;;21.70;56.70;;;;;;5077161;28;20407;-60
2023/05/31 12:47:35;;;;;;;2.60;1.33;;;21.70;56.70;;;;;;5078975;28;20040;-60